Time;durP1;ratioP1;P1;durP2;ratioP2;P2;SDS_P1;SDS_P2;PMS_P1;PMS_P2;Temp;Humidity;BMP_temperature;BMP_pressure;BME280_temperature;BME280_humidity;BME280_pressure;Samples;Min_cycle;Max_cycle;Signal;HPM_P1;HPM_P2
2021/08/07 00:01:42;;;;;;;6.07;1.20;;;;;;;15.65;88.71;99842.86;125018;1093;64275;-78
2021/08/07 00:04:09;;;;;;;4.70;1.33;;;;;;;15.68;88.28;99845.91;124969;1093;64641;-79
2021/08/07 00:06:36;;;;;;;2.70;1.27;;;;;;;15.71;88.22;99841.95;124772;1093;64325;-78
2021/08/07 00:09:03;;;;;;;2.40;1.30;;;;;;;15.72;88.13;99842.79;124979;1092;64223;-77
2021/08/07 00:11:30;;;;;;;2.40;1.30;;;;;;;15.72;88.21;99848.95;124768;1093;64426;-80
2021/08/07 00:13:58;;;;;;;2.40;1.10;;;;;;;15.70;87.90;99837.63;125006;1093;64291;-78
2021/08/07 00:16:25;;;;;;;2.23;1.10;;;;;;;15.66;88.01;99850.67;124823;1093;64706;-80
2021/08/07 00:18:52;;;;;;;3.27;1.20;;;;;;;15.62;88.40;99848.66;124879;1093;64275;-77
2021/08/07 00:21:20;;;;;;;4.73;1.33;;;;;;;15.59;88.17;99844.58;124942;1093;64197;-78
2021/08/07 00:23:47;;;;;;;2.80;1.03;;;;;;;15.57;88.19;99835.17;124793;1093;64309;-76
2021/08/07 00:26:14;;;;;;;1.93;1.20;;;;;;;15.54;88.61;99839.13;124803;1093;64249;-79
2021/08/07 00:28:41;;;;;;;3.10;1.30;;;;;;;15.55;88.58;99840.73;124797;1091;64275;-79
2021/08/07 00:31:08;;;;;;;3.17;1.27;;;;;;;15.55;88.59;99843.41;124805;1093;64280;-79
2021/08/07 00:33:35;;;;;;;3.55;2.00;;;;;;;15.55;88.23;99845.28;124715;1093;64288;-76
2021/08/07 00:36:02;;;;;;;2.67;1.10;;;;;;;15.55;88.07;99843.41;124805;1092;64192;-78
2021/08/07 00:38:29;;;;;;;1.70;1.00;;;;;;;15.55;88.25;99842.60;124831;1093;64302;-80
2021/08/07 00:40:57;;;;;;;2.37;1.27;;;;;;;15.52;88.00;99829.70;124732;1093;64297;-77
2021/08/07 00:43:24;;;;;;;3.83;1.17;;;;;;;15.49;88.51;99834.47;124797;1093;64288;-80
2021/08/07 00:45:51;;;;;;;2.67;1.20;;;;;;;15.47;88.26;99831.20;124856;1093;64271;-83
2021/08/07 00:48:18;;;;;;;3.23;1.37;;;;;;;15.44;88.21;99826.30;124715;1093;64304;-79
2021/08/07 00:50:47;;;;;;;2.03;0.90;;;;;;;15.42;88.40;99833.73;124792;1093;64986;-78
2021/08/07 00:53:14;;;;;;;2.50;1.20;;;;;;;15.38;89.01;99832.55;124877;1092;64278;-80
2021/08/07 00:55:41;;;;;;;3.03;1.40;;;;;;;15.36;88.97;99845.33;124923;1093;64243;-79
2021/08/07 00:58:08;;;;;;;1.47;1.07;;;;;;;15.34;89.00;99844.73;124853;1092;64277;-79
2021/08/07 01:00:36;;;;;;;3.23;2.00;;;;;;;15.32;89.19;99851.36;124832;1093;64815;-78
2021/08/07 01:03:45;;;;;;;2.57;1.47;;;;;;;15.30;89.16;99843.59;124780;1093;64275;-79
2021/08/07 01:06:17;;;;;;;1.83;1.23;;;;;;;15.31;89.10;99853.22;124710;1093;64291;-77
2021/08/07 01:08:57;;;;;;;3.20;1.13;;;;;;;15.33;88.91;99847.66;124803;1093;65351;-79
2021/08/07 01:11:43;;;;;;;3.15;1.30;;;;;;;15.36;88.91;99833.83;124861;1092;64275;-78
2021/08/07 01:14:11;;;;;;;1.97;1.00;;;;;;;15.35;88.80;99833.02;125613;1093;64312;-77
2021/08/07 01:16:42;;;;;;;3.10;1.10;;;;;;;15.36;88.97;99839.17;125939;1092;63421;-79
2021/08/07 01:19:18;;;;;;;2.50;1.30;;;;;;;15.34;88.75;99834.05;124891;1093;64264;-80
2021/08/07 01:21:59;;;;;;;2.13;1.43;;;;;;;15.34;89.06;99830.56;124854;1093;64342;-80
2021/08/07 01:24:37;;;;;;;3.93;1.10;;;;;;;15.34;88.85;99831.38;124934;1093;64313;-79
2021/08/07 01:27:16;;;;;;;3.60;1.57;;;;;;;15.35;88.72;99826.87;125007;1093;64348;-77
2021/08/07 01:29:46;;;;;;;3.60;1.87;;;;;;;15.36;88.57;99833.83;124822;1093;64272;-80
2021/08/07 01:32:13;;;;;;;3.50;1.05;;;;;;;15.38;88.47;99829.88;124925;1093;64272;-77
2021/08/07 01:34:43;;;;;;;2.07;1.13;;;;;;;15.40;88.40;99835.81;124929;1093;64268;-79
2021/08/07 01:37:10;;;;;;;2.83;1.10;;;;;;;15.40;88.13;99833.14;125094;1093;64288;-80
2021/08/07 01:39:43;;;;;;;1.80;1.03;;;;;;;15.40;88.31;99830.47;124779;1093;64272;-79
2021/08/07 01:42:10;;;;;;;2.90;1.30;;;;;;;15.39;87.85;99828.05;124803;1093;64325;-79
2021/08/07 01:44:37;;;;;;;3.83;1.17;;;;;;;15.40;87.51;99830.47;124995;1093;64191;-78
2021/08/07 01:47:14;;;;;;;10.10;1.20;;;;;;;15.42;87.76;99827.58;124980;1093;64272;-78
2021/08/07 01:49:53;;;;;;;2.93;1.20;;;;;;;15.41;87.75;99821.42;124804;1093;64221;-78
2021/08/07 01:52:27;;;;;;;1.80;1.00;;;;;;;15.42;87.36;99832.92;125002;1093;64245;-80
2021/08/07 01:55:00;;;;;;;1.80;1.20;;;;;;;15.38;87.65;99831.74;124939;1093;64329;-79
2021/08/07 01:57:31;;;;;;;3.30;1.33;;;;;;;15.34;87.57;99831.38;124816;1093;64271;-79
2021/08/07 02:00:00;;;;;;;2.83;1.30;;;;;;;15.32;87.61;99833.45;124900;1091;64471;-79
2021/08/07 02:02:29;;;;;;;2.73;1.20;;;;;;;15.27;87.72;99833.34;125073;1093;64191;-79
2021/08/07 02:04:58;;;;;;;3.27;1.47;;;;;;;15.22;87.62;99827.87;124860;1093;64339;-79
2021/08/07 02:07:29;;;;;;;4.93;1.20;;;;;;;15.17;87.63;99827.72;124959;1093;64198;-81
2021/08/07 02:09:57;;;;;;;4.93;1.23;;;;;;;15.14;87.84;99814.83;125013;1093;64272;-79
2021/08/07 02:12:24;;;;;;;2.63;0.83;;;;;;;15.11;87.95;99820.60;124798;1092;64368;-77
2021/08/07 02:14:54;;;;;;;9.70;2.07;;;;;;;15.07;87.82;99809.58;126177;1093;64220;-75
2021/08/07 02:17:21;;;;;;;2.07;1.03;;;;;;;15.02;87.75;99818.24;125146;1093;64438;-77
2021/08/07 02:19:49;;;;;;;3.07;1.43;;;;;;;15.00;88.20;99815.02;124812;1093;64285;-82
2021/08/07 02:22:18;;;;;;;3.00;1.30;;;;;;;14.95;88.33;99819.39;124994;1093;64982;-78
2021/08/07 02:24:46;;;;;;;2.87;1.47;;;;;;;14.87;88.13;99815.97;124956;1093;64272;-81
2021/08/07 02:27:14;;;;;;;4.77;1.40;;;;;;;14.82;88.60;99813.16;124994;1093;64272;-79
2021/08/07 02:29:42;;;;;;;3.00;1.50;;;;;;;14.75;88.55;99817.78;124987;1093;64522;-78
2021/08/07 02:32:10;;;;;;;3.47;1.97;;;;;;;14.67;88.65;99816.22;124972;1092;64272;-78
2021/08/07 02:34:39;;;;;;;4.20;1.17;;;;;;;14.60;88.83;99809.31;125014;1093;64252;-77
2021/08/07 02:37:07;;;;;;;2.73;1.30;;;;;;;14.49;88.82;99810.84;125013;1093;64368;-80
2021/08/07 02:39:35;;;;;;;4.27;1.40;;;;;;;14.37;88.93;99809.97;124945;1093;64208;-79
2021/08/07 02:42:03;;;;;;;4.87;1.37;;;;;;;14.29;89.72;99813.73;124941;1092;64422;-79
2021/08/07 02:44:31;;;;;;;4.43;1.63;;;;;;;14.25;89.93;99812.54;124772;1093;64259;-81
2021/08/07 02:47:01;;;;;;;2.03;1.20;;;;;;;14.20;90.24;99815.88;124924;1093;64298;-78
2021/08/07 02:49:29;;;;;;;1.83;1.33;;;;;;;14.17;90.88;99810.97;125005;1093;64288;-79
2021/08/07 02:51:56;;;;;;;2.55;1.40;;;;;;;14.17;91.13;99805.63;124798;1093;64272;-78
2021/08/07 02:54:23;;;;;;;2.05;1.30;;;;;;;14.17;91.27;99804.82;124942;1093;64326;-80
2021/08/07 02:56:50;;;;;;;3.13;1.17;;;;;;;14.17;91.09;99810.97;125008;1093;64291;-80
2021/08/07 02:59:20;;;;;;;3.00;1.43;;;;;;;14.16;91.28;99813.88;124790;1093;64227;-77
2021/08/07 03:01:47;;;;;;;3.40;1.87;;;;;;;14.17;91.40;99810.16;124988;1093;64706;-77
2021/08/07 03:04:15;;;;;;;3.03;1.20;;;;;;;14.18;91.77;99815.28;124925;1092;64738;-78
2021/08/07 03:06:42;;;;;;;4.30;1.90;;;;;;;14.17;91.82;99818.97;124924;1093;64282;-78
2021/08/07 03:09:09;;;;;;;3.13;1.30;;;;;;;14.19;91.55;99814.23;124794;1093;64272;-77
2021/08/07 03:11:37;;;;;;;3.37;1.50;;;;;;;14.20;91.40;99809.73;124914;1093;64272;-80
2021/08/07 03:14:04;;;;;;;5.77;1.80;;;;;;;14.20;91.48;99815.88;124795;1092;64272;-79
2021/08/07 03:16:31;;;;;;;2.33;1.20;;;;;;;14.19;91.27;99811.56;124977;1093;64291;-79
2021/08/07 03:18:58;;;;;;;7.70;1.20;;;;;;;14.18;91.79;99809.95;125021;1092;64309;-77
2021/08/07 03:21:26;;;;;;;4.17;1.40;;;;;;;14.18;91.93;99806.47;124955;1093;64261;-79
2021/08/07 03:23:53;;;;;;;2.25;1.30;;;;;;;14.16;91.67;99806.68;124951;1092;64332;-79
2021/08/07 03:26:20;;;;;;;3.33;1.33;;;;;;;14.15;91.47;99813.03;124809;1093;64230;-78
2021/08/07 03:28:47;;;;;;;4.73;1.80;;;;;;;14.14;91.42;99818.61;124827;1093;64280;-83
2021/08/07 03:31:14;;;;;;;3.30;1.43;;;;;;;14.13;91.42;99820.47;124757;1093;64390;-80
2021/08/07 03:33:41;;;;;;;3.00;2.57;;;;;;;14.13;91.68;99820.47;124796;1093;64374;-79
2021/08/07 03:36:09;;;;;;;4.23;1.50;;;;;;;14.12;91.74;99826.02;124783;1093;64280;-80
2021/08/07 03:38:36;;;;;;;2.20;1.53;;;;;;;14.10;91.42;99825.42;124752;1092;64227;-81
2021/08/07 03:41:03;;;;;;;2.90;1.70;;;;;;;14.07;91.48;99818.67;124778;1093;64291;-79
2021/08/07 03:43:30;;;;;;;7.57;1.43;;;;;;;14.05;91.58;99818.08;124776;1093;64342;-79
2021/08/07 03:45:58;;;;;;;3.15;1.25;;;;;;;14.03;91.77;99814.81;124782;1092;64198;-78
2021/08/07 03:48:25;;;;;;;4.13;1.60;;;;;;;14.01;91.90;99812.36;124871;1093;64311;-78
2021/08/07 03:50:52;;;;;;;2.13;1.20;;;;;;;13.99;92.00;99806.42;124860;1093;64274;-81
2021/08/07 03:53:19;;;;;;;2.57;1.00;;;;;;;13.99;91.93;99805.62;124864;1093;64272;-79
2021/08/07 03:55:47;;;;;;;2.47;1.33;;;;;;;13.98;91.89;99799.48;125188;1092;64351;-76
2021/08/07 03:58:14;;;;;;;2.23;1.40;;;;;;;13.97;91.71;99797.02;125154;1092;64375;-78
2021/08/07 04:00:41;;;;;;;2.20;1.13;;;;;;;13.97;91.80;99800.50;124774;1092;64256;-80
2021/08/07 04:03:08;;;;;;;2.00;1.20;;;;;;;13.98;91.75;99802.14;124746;1093;64380;-79
2021/08/07 04:05:36;;;;;;;1.93;1.00;;;;;;;14.00;92.24;99794.71;124753;1093;64429;-80
2021/08/07 04:08:05;;;;;;;1.50;1.10;;;;;;;14.02;92.41;99799.83;124754;1093;64288;-78
2021/08/07 04:10:33;;;;;;;2.30;1.50;;;;;;;14.04;91.88;99805.77;124768;1093;64186;-79
2021/08/07 04:13:00;;;;;;;3.17;1.50;;;;;;;14.06;92.02;99806.36;124841;1093;64288;-77
2021/08/07 04:15:28;;;;;;;2.27;1.30;;;;;;;14.08;91.87;99802.44;124742;1093;64824;-77
2021/08/07 04:17:55;;;;;;;1.50;1.10;;;;;;;14.12;92.24;99796.67;124798;1093;64227;-78
2021/08/07 04:20:22;;;;;;;2.90;1.57;;;;;;;14.14;91.86;99795.41;124789;1093;65760;-79
2021/08/07 04:22:49;;;;;;;2.35;1.20;;;;;;;14.17;91.87;99797.63;124726;1093;64288;-79
2021/08/07 04:25:17;;;;;;;4.10;1.30;;;;;;;14.20;91.83;99789.20;124810;1093;64296;-78
2021/08/07 04:27:45;;;;;;;2.17;1.10;;;;;;;14.25;91.87;99797.34;124779;1093;64297;-79
2021/08/07 04:30:12;;;;;;;2.10;1.20;;;;;;;14.31;91.54;99794.84;124848;1093;64329;-80
2021/08/07 04:32:40;;;;;;;2.77;1.47;;;;;;;14.36;91.36;99800.32;124799;1093;64429;-79
2021/08/07 04:35:08;;;;;;;1.47;1.00;;;;;;;14.44;91.14;99797.36;124929;1093;64175;-79
2021/08/07 04:37:55;;;;;;;2.67;1.40;;;;;;;14.48;91.36;99795.88;124897;1093;64268;-78
2021/08/07 04:40:27;;;;;;;2.90;1.20;;;;;;;14.54;90.97;99804.86;124784;1093;64245;-78
2021/08/07 04:42:54;;;;;;;2.87;1.77;;;;;;;14.58;90.61;99811.42;124811;1093;64272;-78
2021/08/07 04:45:21;;;;;;;1.97;1.10;;;;;;;14.63;90.87;99820.37;124840;1093;64268;-80
2021/08/07 04:47:53;;;;;;;2.30;1.20;;;;;;;14.67;90.45;99813.55;126528;1093;64230;-77
2021/08/07 04:50:22;;;;;;;3.30;1.30;;;;;;;14.72;90.18;99822.74;124765;1092;64301;-78
2021/08/07 04:52:49;;;;;;;2.70;1.10;;;;;;;14.75;89.87;99816.94;124778;1094;64435;-82
2021/08/07 04:55:17;;;;;;;3.53;1.53;;;;;;;14.78;90.13;99811.17;124767;1093;64369;-81
2021/08/07 04:57:44;;;;;;;3.03;1.27;;;;;;;14.80;90.00;99809.09;124779;1093;64160;-79
2021/08/07 05:00:12;;;;;;;2.43;1.03;;;;;;;14.84;89.66;99810.28;124826;1093;64294;-79
2021/08/07 05:02:40;;;;;;;3.13;1.33;;;;;;;14.87;89.53;99815.16;124744;1093;64332;-77
2021/08/07 05:05:08;;;;;;;4.00;0.80;;;;;;;14.90;89.43;99814.73;124844;1093;64666;-79
2021/08/07 05:07:35;;;;;;;5.47;1.47;;;;;;;14.93;89.53;99810.78;124868;1093;64317;-79
2021/08/07 05:10:05;;;;;;;2.10;1.10;;;;;;;14.96;89.55;99811.16;124732;1093;64329;-80
2021/08/07 05:12:31;;;;;;;2.53;1.30;;;;;;;15.00;89.40;99815.02;124732;1093;64272;-77
2021/08/07 05:15:00;;;;;;;2.63;1.10;;;;;;;15.04;89.30;99815.36;124714;1093;64195;-77
2021/08/07 05:17:27;;;;;;;2.47;0.80;;;;;;;15.09;89.38;99813.64;124962;1093;64198;-78
2021/08/07 05:19:54;;;;;;;1.57;1.00;;;;;;;15.14;89.10;99814.83;124807;1092;64268;-77
2021/08/07 05:22:22;;;;;;;2.07;1.00;;;;;;;15.19;89.04;99818.42;124798;1093;65472;-77
2021/08/07 05:24:50;;;;;;;1.97;1.10;;;;;;;15.26;89.29;99810.34;125040;1093;64282;-79
2021/08/07 05:27:18;;;;;;;3.67;1.00;;;;;;;15.32;89.03;99806.73;125011;1093;64198;-79
2021/08/07 05:29:45;;;;;;;1.80;0.83;;;;;;;15.39;88.74;99806.66;125061;1093;64275;-79
2021/08/07 05:32:12;;;;;;;2.10;1.23;;;;;;;15.44;88.55;99804.92;124779;1093;65073;-77
2021/08/07 05:34:39;;;;;;;1.43;1.00;;;;;;;15.52;88.04;99813.67;124969;1092;64245;-82
2021/08/07 05:37:06;;;;;;;1.73;1.10;;;;;;;15.60;87.74;99810.67;124954;1093;64272;-80
2021/08/07 05:39:33;;;;;;;3.27;1.53;;;;;;;15.68;87.43;99810.31;124767;1093;64656;-80
2021/08/07 05:42:00;;;;;;;1.63;0.90;;;;;;;15.77;86.57;99811.66;124857;1093;64298;-80
2021/08/07 05:44:27;;;;;;;3.60;1.00;;;;;;;15.86;86.33;99804.91;124923;1092;64277;-80
2021/08/07 05:46:55;;;;;;;2.47;0.90;;;;;;;15.95;85.77;99812.59;124803;1093;64431;-78
2021/08/07 05:49:22;;;;;;;4.43;1.00;;;;;;;16.04;85.04;99814.67;124884;1092;64209;-77
2021/08/07 05:51:49;;;;;;;2.97;1.63;;;;;;;16.11;84.84;99811.91;124915;1093;64285;-78
2021/08/07 05:54:20;;;;;;;4.00;1.10;;;;;;;16.19;84.61;99806.18;124984;1093;64269;-80
2021/08/07 05:56:48;;;;;;;3.63;1.00;;;;;;;16.29;84.15;99817.11;124754;1093;64192;-79
2021/08/07 05:59:15;;;;;;;2.50;1.10;;;;;;;16.36;83.24;99813.50;124825;1093;64280;-80
2021/08/07 06:01:42;;;;;;;2.30;0.87;;;;;;;16.44;83.52;99818.50;124975;1093;64272;-79
2021/08/07 06:04:09;;;;;;;2.30;0.87;;;;;;;16.52;83.10;99818.14;124955;1093;64368;-79
2021/08/07 06:06:36;;;;;;;3.73;0.80;;;;;;;16.62;82.63;99821.05;124981;1093;64246;-82
2021/08/07 06:09:03;;;;;;;2.50;1.20;;;;;;;16.69;81.80;99824.39;125010;1093;64332;-77
2021/08/07 06:11:31;;;;;;;4.27;1.10;;;;;;;16.77;82.19;99823.22;124916;1093;64236;-79
2021/08/07 06:13:59;;;;;;;3.23;1.07;;;;;;;16.87;81.70;99817.27;124806;1092;64291;-79
2021/08/07 06:16:26;;;;;;;1.33;0.80;;;;;;;16.96;80.76;99810.50;125013;1093;64964;-77
2021/08/07 06:18:54;;;;;;;2.40;0.60;;;;;;;17.06;79.98;99826.74;124997;1093;64246;-78
2021/08/07 06:21:21;;;;;;;2.60;0.70;;;;;;;17.15;79.17;99819.16;124787;1093;64279;-82
2021/08/07 06:23:51;;;;;;;1.40;0.70;;;;;;;17.23;79.06;99823.30;124942;1093;64284;-78
2021/08/07 06:26:19;;;;;;;1.60;0.63;;;;;;;17.30;78.18;99810.59;124700;1093;64187;-81
2021/08/07 06:28:46;;;;;;;2.37;0.90;;;;;;;17.44;78.48;99811.89;124962;1093;64284;-77
2021/08/07 06:31:13;;;;;;;1.80;1.00;;;;;;;17.55;76.71;99806.70;124868;1091;64270;-77
2021/08/07 06:33:41;;;;;;;1.90;0.97;;;;;;;17.69;77.02;99808.83;124801;1093;64445;-82
2021/08/07 06:36:08;;;;;;;2.10;1.00;;;;;;;17.85;74.95;99819.83;124720;1092;64314;-79
2021/08/07 06:38:36;;;;;;;2.23;1.00;;;;;;;17.92;74.66;99813.25;124987;1092;64285;-78
2021/08/07 06:41:04;;;;;;;1.20;0.90;;;;;;;17.98;74.22;99816.00;124749;1093;64275;-77
2021/08/07 06:43:32;;;;;;;3.73;0.90;;;;;;;18.09;73.22;99823.97;124841;1093;64314;-80
2021/08/07 06:45:59;;;;;;;2.60;0.80;;;;;;;18.16;73.66;99810.38;124898;1093;64195;-80
2021/08/07 06:48:26;;;;;;;1.53;0.80;;;;;;;18.24;73.46;99815.32;124994;1092;64285;-79
2021/08/07 06:50:53;;;;;;;2.10;0.80;;;;;;;18.30;72.72;99811.66;125062;1093;65388;-80
2021/08/07 06:53:21;;;;;;;3.30;0.80;;;;;;;18.36;73.85;99822.45;124989;1093;64249;-77
2021/08/07 06:55:48;;;;;;;1.10;0.53;;;;;;;18.36;72.91;99822.45;124824;1093;64389;-81
2021/08/07 06:58:15;;;;;;;1.33;0.80;;;;;;;18.32;72.95;99822.95;124956;1092;64236;-77
2021/08/07 07:00:42;;;;;;;2.70;0.90;;;;;;;18.31;73.38;99815.95;124985;1093;64268;-79
2021/08/07 07:03:10;;;;;;;1.23;0.70;;;;;;;18.32;73.66;99816.78;124974;1093;64272;-78
2021/08/07 07:05:37;;;;;;;3.97;1.00;;;;;;;18.40;74.03;99819.02;125021;1093;64346;-79
2021/08/07 07:08:04;;;;;;;3.23;0.63;;;;;;;18.47;72.52;99816.17;124811;1093;64254;-78
2021/08/07 07:10:32;;;;;;;1.63;0.73;;;;;;;18.60;73.05;99812.31;124785;1093;64287;-81
2021/08/07 07:12:59;;;;;;;1.43;0.97;;;;;;;18.78;72.06;99820.07;124951;1093;64272;-80
2021/08/07 07:15:27;;;;;;;2.07;0.70;;;;;;;18.99;72.59;99809.56;125119;1093;64318;-78
2021/08/07 07:17:55;;;;;;;2.90;0.87;;;;;;;19.23;71.07;99815.45;124980;1093;65468;-79
2021/08/07 07:20:22;;;;;;;2.87;0.87;;;;;;;19.35;68.72;99810.73;124996;1093;64291;-79
2021/08/07 07:22:50;;;;;;;1.93;0.83;;;;;;;19.50;69.52;99805.48;124922;1093;64275;-78
2021/08/07 07:25:17;;;;;;;4.53;0.83;;;;;;;19.61;68.41;99810.97;124870;1093;64946;-77
2021/08/07 07:27:45;;;;;;;2.20;0.67;;;;;;;19.72;68.33;99815.38;125029;1093;64268;-78
2021/08/07 07:30:14;;;;;;;1.10;0.70;;;;;;;19.84;68.36;99807.95;124991;1093;64300;-79
2021/08/07 07:32:42;;;;;;;4.73;0.80;;;;;;;19.97;67.92;99817.45;124875;1091;64391;-81
2021/08/07 07:35:10;;;;;;;1.40;0.80;;;;;;;20.08;65.95;99821.86;124996;1093;64237;-80
2021/08/07 07:37:38;;;;;;;2.33;0.70;;;;;;;20.19;65.53;99829.98;124942;1093;64323;-79
2021/08/07 07:40:07;;;;;;;2.90;1.05;;;;;;;20.33;65.68;99829.27;124994;1093;64195;-80
2021/08/07 07:42:35;;;;;;;2.57;0.90;;;;;;;20.48;64.96;99825.84;125015;1093;64677;-79
2021/08/07 07:45:03;;;;;;;2.63;0.63;;;;;;;20.68;65.89;99825.17;124977;1093;64288;-78
2021/08/07 07:47:30;;;;;;;1.20;0.60;;;;;;;20.80;62.01;99826.83;125087;1093;64278;-79
2021/08/07 07:49:57;;;;;;;2.13;0.70;;;;;;;20.87;62.06;99830.91;124981;1093;64291;-77
2021/08/07 07:52:24;;;;;;;2.07;0.50;;;;;;;20.95;62.56;99829.57;124952;1093;64287;-78
2021/08/07 07:54:51;;;;;;;1.93;0.60;;;;;;;20.90;61.74;99835.77;124790;1093;65516;-79
2021/08/07 07:57:20;;;;;;;2.83;0.93;;;;;;;20.80;62.31;99833.02;124771;1093;64252;-79
2021/08/07 07:59:47;;;;;;;1.50;0.53;;;;;;;20.71;60.68;99835.41;124971;1093;64246;-78
2021/08/07 08:02:15;;;;;;;3.23;0.70;;;;;;;20.64;62.10;99828.66;125013;1093;64962;-79
2021/08/07 08:04:42;;;;;;;1.17;0.70;;;;;;;20.59;62.06;99826.73;124855;1093;64324;-79
2021/08/07 08:07:09;;;;;;;2.20;0.70;;;;;;;20.50;61.31;99828.28;125004;1092;64272;-79
2021/08/07 08:09:36;;;;;;;1.53;0.80;;;;;;;20.49;62.34;99834.76;124987;1093;64277;-79
2021/08/07 08:12:04;;;;;;;1.23;0.60;;;;;;;20.47;63.05;99836.91;124855;1093;64171;-79
2021/08/07 08:14:32;;;;;;;1.27;0.43;;;;;;;20.50;63.99;99834.48;124943;1093;64364;-78
2021/08/07 08:16:59;;;;;;;1.15;0.60;;;;;;;20.58;63.77;99835.91;125031;1093;64237;-77
2021/08/07 08:19:26;;;;;;;1.80;0.70;;;;;;;20.69;63.46;99829.48;125033;1093;64273;-77
2021/08/07 08:21:54;;;;;;;1.93;0.70;;;;;;;20.76;63.59;99830.06;124999;1093;64320;-79
2021/08/07 08:24:25;;;;;;;3.73;0.80;;;;;;;20.81;63.50;99817.69;125008;1093;64256;-80
2021/08/07 08:26:52;;;;;;;1.57;0.77;;;;;;;20.86;62.88;99825.78;124996;1093;64542;-78
2021/08/07 08:29:20;;;;;;;2.07;0.70;;;;;;;20.90;62.89;99821.48;124948;1093;64314;-80
2021/08/07 08:31:47;;;;;;;2.43;0.60;;;;;;;21.06;63.62;99819.63;124946;1093;64425;-78
2021/08/07 08:34:14;;;;;;;4.17;1.70;;;;;;;21.13;62.15;99814.80;124848;1093;64285;-80
2021/08/07 08:36:41;;;;;;;0.90;0.43;;;;;;;21.21;62.38;99810.75;124825;1093;64329;-79
2021/08/07 08:39:08;;;;;;;0.77;0.50;;;;;;;21.18;61.67;99806.71;124790;1093;64319;-79
2021/08/07 08:41:36;;;;;;;1.07;0.57;;;;;;;21.14;61.90;99797.53;124963;1092;64408;-80
2021/08/07 08:44:04;;;;;;;2.47;0.80;;;;;;;21.18;61.20;99794.03;124757;1093;64249;-78
2021/08/07 08:46:32;;;;;;;2.23;0.90;;;;;;;21.25;60.99;99795.66;124905;1093;64287;-78
2021/08/07 08:49:01;;;;;;;1.67;0.70;;;;;;;21.35;61.33;99799.18;124782;1093;64361;-79
2021/08/07 08:51:32;;;;;;;3.17;0.57;;;;;;;21.48;60.50;99797.87;124949;1093;64419;-82
2021/08/07 08:54:01;;;;;;;2.70;0.80;;;;;;;21.55;60.00;99793.03;125019;1093;64384;-80
2021/08/07 08:56:34;;;;;;;1.00;0.50;;;;;;;21.44;60.12;99793.28;124926;1093;64272;-79
2021/08/07 08:59:05;;;;;;;1.27;0.60;;;;;;;21.33;60.50;99787.84;124910;1093;64234;-80
2021/08/07 09:01:32;;;;;;;3.43;0.60;;;;;;;21.27;59.99;99798.91;124815;1093;65978;-79
2021/08/07 09:04:03;;;;;;;2.03;0.60;;;;;;;21.22;59.40;99801.60;124999;1092;64666;-80
2021/08/07 09:06:34;;;;;;;2.63;0.60;;;;;;;21.16;59.36;99806.97;125004;1093;65784;-79
2021/08/07 09:09:09;;;;;;;1.93;0.60;;;;;;;21.09;58.42;99806.43;124788;1093;64313;-79
2021/08/07 09:11:49;;;;;;;1.83;0.60;;;;;;;21.14;60.05;99805.63;125095;1093;64272;-80
2021/08/07 09:14:29;;;;;;;0.87;0.40;;;;;;;21.33;61.55;99805.92;124967;1092;64716;-79
2021/08/07 09:17:00;;;;;;;2.67;0.60;;;;;;;21.50;60.29;99795.71;124947;1093;64479;-79
2021/08/07 09:19:28;;;;;;;1.50;0.50;;;;;;;21.75;58.90;99796.80;124937;1093;64265;-79
2021/08/07 09:22:14;;;;;;;1.17;0.40;;;;;;;21.93;57.33;99796.25;124913;1093;64269;-79
2021/08/07 09:25:11;;;;;;;1.83;0.63;;;;;;;21.97;57.74;99791.09;124880;1091;64256;-79
2021/08/07 09:27:44;;;;;;;1.27;0.50;;;;;;;22.12;57.96;99782.98;124838;1093;64264;-78
2021/08/07 09:30:17;;;;;;;0.97;0.60;;;;;;;22.25;57.30;99781.63;124761;1093;64242;-79
2021/08/07 09:32:47;;;;;;;1.70;0.70;;;;;;;22.19;55.71;99782.70;124880;1093;64202;-78
2021/08/07 09:35:26;;;;;;;1.70;0.50;;;;;;;22.19;56.63;99788.09;124930;1093;64250;-77
2021/08/07 09:38:11;;;;;;;1.37;0.50;;;;;;;22.25;56.37;99788.91;124926;1093;64269;-79
2021/08/07 09:40:54;;;;;;;1.50;0.60;;;;;;;22.29;57.25;99780.00;124930;1093;64201;-79
2021/08/07 09:43:25;;;;;;;1.63;0.33;;;;;;;22.38;57.20;99767.53;124983;1093;64192;-83
2021/08/07 09:46:00;;;;;;;1.70;0.50;;;;;;;22.50;56.22;99769.09;125042;1093;64294;-77
2021/08/07 09:48:41;;;;;;;1.27;0.50;;;;;;;22.62;56.52;99763.38;125095;1093;64272;-81
2021/08/07 09:51:33;;;;;;;1.47;0.60;;;;;;;22.88;56.14;99755.94;125058;1093;64313;-80
2021/08/07 09:54:11;;;;;;;1.67;0.50;;;;;;;23.13;54.62;99755.80;125038;1093;64165;-79
2021/08/07 09:56:54;;;;;;;1.40;0.60;;;;;;;23.18;53.23;99761.16;124963;1092;64416;-79
2021/08/07 09:59:25;;;;;;;0.60;0.40;;;;;;;23.23;54.27;99756.80;124959;1093;64272;-79
2021/08/07 10:01:54;;;;;;;3.47;0.70;;;;;;;23.18;52.14;99747.63;124837;1093;64362;-78
2021/08/07 10:04:23;;;;;;;0.83;0.43;;;;;;;23.18;53.42;99753.05;125028;1093;64268;-80
2021/08/07 10:07:09;;;;;;;0.90;0.50;;;;;;;23.17;54.01;99748.73;124810;1093;64272;-79
2021/08/07 10:09:37;;;;;;;1.47;0.50;;;;;;;23.12;52.80;99740.67;125020;1092;64277;-78
2021/08/07 10:12:06;;;;;;;1.40;0.70;;;;;;;23.22;53.98;99744.38;124970;1093;64188;-82
2021/08/07 10:14:33;;;;;;;1.85;0.70;;;;;;;23.27;52.69;99736.21;125032;1093;64410;-83
2021/08/07 10:17:04;;;;;;;2.27;0.70;;;;;;;23.42;53.71;99722.58;124888;1093;64268;-77
2021/08/07 10:19:33;;;;;;;2.37;0.63;;;;;;;23.73;52.94;99723.08;125046;1093;64207;-78
2021/08/07 10:22:07;;;;;;;1.10;0.40;;;;;;;23.98;53.83;99726.66;125046;1092;64277;-79
2021/08/07 10:24:38;;;;;;;1.27;0.57;;;;;;;24.16;53.80;99719.66;125032;1093;64284;-78
2021/08/07 10:27:05;;;;;;;1.17;0.60;;;;;;;24.04;50.01;99727.41;125078;1093;64330;-80
2021/08/07 10:29:38;;;;;;;1.30;0.70;;;;;;;23.74;51.33;99719.29;124873;1093;64387;-80
2021/08/07 10:32:06;;;;;;;2.17;0.63;;;;;;;23.52;53.08;99716.25;125072;1093;64199;-80
2021/08/07 10:34:37;;;;;;;1.10;0.60;;;;;;;23.35;52.70;99713.95;124973;1093;64387;-84
2021/08/07 10:37:05;;;;;;;2.20;0.80;;;;;;;23.24;53.02;99720.55;124929;1093;64738;-78
2021/08/07 10:39:33;;;;;;;1.20;0.50;;;;;;;23.24;53.80;99725.97;125008;1093;64291;-79
2021/08/07 10:42:03;;;;;;;2.00;0.70;;;;;;;23.32;53.55;99728.07;124870;1093;64253;-78
2021/08/07 10:44:35;;;;;;;0.60;0.37;;;;;;;23.42;53.32;99717.16;124849;1092;63632;-79
2021/08/07 10:47:03;;;;;;;2.20;0.80;;;;;;;23.68;53.49;99725.05;124842;1092;64425;-77
2021/08/07 10:49:39;;;;;;;1.65;0.60;;;;;;;24.00;51.92;99716.34;124780;1093;64275;-80
2021/08/07 10:52:21;;;;;;;1.10;0.60;;;;;;;24.14;50.76;99711.02;125110;1093;64383;-78
2021/08/07 10:54:52;;;;;;;2.87;0.60;;;;;;;24.11;51.18;99711.61;125172;1092;64285;-77
2021/08/07 10:57:39;;;;;;;1.20;0.67;;;;;;;24.27;52.93;99699.50;125190;1093;64272;-77
2021/08/07 11:00:16;;;;;;;2.03;0.70;;;;;;;24.54;50.86;99698.08;125032;1093;64330;-77
2021/08/07 11:02:45;;;;;;;2.77;0.60;;;;;;;24.75;49.59;99696.68;125010;1093;64348;-81
2021/08/07 11:05:14;;;;;;;1.10;0.40;;;;;;;24.90;49.51;99700.27;124758;1092;64374;-80
2021/08/07 11:07:41;;;;;;;1.50;0.50;;;;;;;24.88;47.77;99700.56;124807;1092;64326;-80
2021/08/07 11:10:12;;;;;;;1.60;0.75;;;;;;;24.96;48.34;99696.38;124922;1092;64214;-78
2021/08/07 11:12:47;;;;;;;1.40;0.30;;;;;;;24.94;46.92;99682.30;124936;1093;64317;-78
2021/08/07 11:15:30;;;;;;;1.95;0.70;;;;;;;25.00;47.24;99683.84;125003;1093;64198;-79
2021/08/07 11:18:24;;;;;;;1.83;0.40;;;;;;;25.03;46.06;99672.38;124789;1093;64200;-78
2021/08/07 11:20:51;;;;;;;1.67;0.40;;;;;;;25.15;44.01;99666.50;124813;1093;64313;-81
2021/08/07 11:23:21;;;;;;;2.60;0.70;;;;;;;25.26;44.89;99659.02;124809;1093;64317;-82
2021/08/07 11:25:54;;;;;;;1.23;0.40;;;;;;;25.32;44.57;99657.83;124993;1092;64288;-76
2021/08/07 11:28:22;;;;;;;4.67;0.70;;;;;;;25.19;45.06;99656.67;125011;1092;64380;-78
2021/08/07 11:31:16;;;;;;;2.20;0.40;;;;;;;25.15;43.97;99663.79;125026;1092;64259;-79
2021/08/07 11:33:43;;;;;;;;;;;;;;;25.21;45.06;99657.20;125204;1093;64215;-78
2021/08/07 11:36:12;;;;;;;1.73;0.60;;;;;;;25.35;44.67;99647.19;124951;1092;64291;-79